Weather reports worldwide

Advertisment
Catanzaro, Italy (16365): temperature & dewpoint: 15.05.2019 16:00:00 - 21.05.2019 16:00:00 (CEST)Catanzaro, Italy (16365): wind speed: 15.05.2019 16:00:00 - 21.05.2019 16:00:00 (CEST)Catanzaro, Italy (16365): wind direction: 15.05.2019 16:00:00 - 21.05.2019 16:00:00 (CEST)Catanzaro, Italy (16365): reduced air pressure: 15.05.2019 16:00:00 - 21.05.2019 16:00:00 (CEST)
Date & Time tt [°C] td [°C] ff [km/h] ff [kn] dd ppp [hPa]
21.05.2019 16:00:00 - - - - - -
21.05.2019 15:00:00 16,1 9,5 37 20 WNW 1016,6
21.05.2019 14:00:00 15,7 10,2 28 15 WNW 1016,3
21.05.2019 13:00:00 14,9 10,9 15 8 W 1016,1
21.05.2019 12:00:00 15,2 9,7 15 8 SSW 1016,6
21.05.2019 11:00:00 15,0 9,1 18 10 W 1016,5
21.05.2019 10:00:00 14,5 9,3 11 6 W 1015,8
21.05.2019 09:00:00 13,6 10,2 13 7 W 1015,8
21.05.2019 08:00:00 13,1 9,7 18 10 W 1015,7
21.05.2019 07:00:00 13,0 8,4 5 3 WNW 1015,0
21.05.2019 06:00:00 12,6 8,0 5 3 NW 1014,6
21.05.2019 05:00:00 12,8 4,9 13 7 WNW 1014,4
21.05.2019 04:00:00 12,8 7,4 16 9 NW 1014,7
21.05.2019 03:00:00 13,2 6,7 11 6 WNW 1014,9
21.05.2019 02:00:00 13,0 7,6 11 6 WNW 1015,1
21.05.2019 01:00:00 13,0 8,4 15 8 WNW 1015,4
21.05.2019 00:00:00 13,4 6,9 2 1 WNW 1015,4
20.05.2019 23:00:00 13,4 6,4 15 8 NW 1014,9
20.05.2019 22:00:00 13,2 8,8 28 15 WNW 1014,8
20.05.2019 21:00:00 13,6 8,6 24 13 WNW 1014,1
20.05.2019 20:00:00 14,4 7,6 22 12 WNW 1013,6
20.05.2019 19:00:00 15,6 7,3 15 8 WNW 1013,1
20.05.2019 18:00:00 16,5 6,3 13 7 W 1013,3
20.05.2019 17:00:00 17,1 5,9 15 8 SSE 1013,1
20.05.2019 16:00:00 17,2 5,7 11 6 W 1013,2
20.05.2019 15:00:00 17,6 4,8 22 12 W 1013,0
20.05.2019 14:00:00 17,5 6,6 8 4 W 1013,0
20.05.2019 13:00:00 17,1 6,2 22 12 WNW 1012,9
20.05.2019 12:00:00 16,4 7,3 24 13 W 1013,0
20.05.2019 11:00:00 15,9 7,3 16 9 W 1012,5
20.05.2019 10:00:00 14,7 9,7 21 11 W 1012,1
20.05.2019 09:00:00 13,4 9,6 16 9 W 1012,9
20.05.2019 08:00:00 12,9 7,7 15 8 W 1012,1
20.05.2019 07:00:00 13,1 6,4 8 4 WNW 1011,4
20.05.2019 06:00:00 12,9 7,1 13 7 WNW 1010,6
20.05.2019 05:00:00 12,8 9,2 9 5 NW 1010,5
20.05.2019 04:00:00 12,8 9,0 9 5 WNW 1010,6
20.05.2019 03:00:00 12,8 9,8 13 7 WNW 1010,7
20.05.2019 02:00:00 13,0 10,5 15 8 WNW 1011,1
20.05.2019 01:00:00 13,2 10,2 8 4 WNW 1011,1
20.05.2019 00:00:00 13,3 9,9 9 5 NW 1011,4
19.05.2019 23:00:00 13,5 10,6 18 10 WNW 1011,3
19.05.2019 22:00:00 13,9 10,5 11 6 WNW 1010,9
19.05.2019 21:00:00 14,1 10,9 15 8 WNW 1010,3
19.05.2019 20:00:00 14,5 10,1 4 2 W 1009,8
19.05.2019 19:00:00 15,7 8,6 15 8 W 1008,7
19.05.2019 18:00:00 16,2 8,9 22 12 W 1007,6
19.05.2019 17:00:00 16,5 8,4 37 20 W 1007,5
19.05.2019 16:00:00 16,3 8,5 24 13 W 1007,5
19.05.2019 15:00:00 16,7 9,1 26 14 W 1007,1
19.05.2019 14:00:00 16,6 9,2 35 19 W 1006,5
19.05.2019 13:00:00 16,9 9,5 11 6 W 1006,1
19.05.2019 12:00:00 17,0 9,1 28 15 W 1005,5
19.05.2019 11:00:00 16,5 8,4 34 18 W 1005,4
19.05.2019 10:00:00 15,6 10,9 24 13 WNW 1005,3
19.05.2019 09:00:00 14,3 10,3 13 7 WNW 1005,1
19.05.2019 08:00:00 13,7 10,7 15 8 WNW 1005,6
19.05.2019 07:00:00 13,5 10,1 8 4 WNW 1005,4
19.05.2019 06:00:00 13,3 10,4 2 1 W 1005,9
19.05.2019 05:00:00 13,3 10,8 4 2 SW 1006,0
19.05.2019 04:00:00 13,2 10,0 0 0 N 1005,7
19.05.2019 03:00:00 13,5 11,4 0 0 N 1007,2
19.05.2019 02:00:00 13,4 11,4 4 2 NE 1007,5
19.05.2019 01:00:00 13,5 11,4 0 0 N 1008,5
19.05.2019 00:00:00 13,3 11,2 2 1 E 1008,9
18.05.2019 23:00:00 13,5 11,4 2 1 ENE 1009,5
18.05.2019 22:00:00 13,5 11,4 4 2 ENE 1009,5
18.05.2019 21:00:00 13,7 11,6 2 1 NE 1009,1
18.05.2019 20:00:00 13,9 11,2 4 2 ESE 1009,1
18.05.2019 19:00:00 14,4 11,3 2 1 ESE 1008,9
18.05.2019 18:00:00 14,5 11,1 9 5 SE 1009,0
18.05.2019 17:00:00 14,9 10,3 5 3 SE 1009,2
18.05.2019 16:00:00 15,0 10,2 4 2 SE 1009,7
18.05.2019 15:00:00 14,8 10,6 4 2 SE 1010,2
18.05.2019 14:00:00 14,7 10,3 13 7 SE 1010,4
18.05.2019 13:00:00 13,9 10,8 16 9 E 1010,5
18.05.2019 12:00:00 13,5 10,6 8 4 ESE 1011,0
18.05.2019 11:00:00 13,5 10,5 18 10 ESE 1011,0
18.05.2019 10:00:00 13,6 10,0 24 13 ESE 1010,5
18.05.2019 09:00:00 13,5 10,1 5 3 E 1010,5
18.05.2019 08:00:00 13,0 9,6 8 4 ENE 1010,1
18.05.2019 07:00:00 12,5 10,0 8 4 ENE 1010,7
18.05.2019 06:00:00 12,2 9,7 11 6 ENE 1009,9
18.05.2019 05:00:00 12,5 10,0 8 4 ENE 1010,1
18.05.2019 04:00:00 12,4 8,8 15 8 NE 1010,2
18.05.2019 03:00:00 12,2 9,4 2 1 NE 1010,7
18.05.2019 02:00:00 11,9 9,4 11 6 NNE 1011,1
18.05.2019 01:00:00 - - - - - -
18.05.2019 00:00:00 - - - - - -
17.05.2019 23:00:00 12,8 10,8 4 2 NE 1011,8
17.05.2019 22:00:00 - - - - - -
17.05.2019 21:00:00 - - - - - -
17.05.2019 20:00:00 13,3 10,6 4 2 ESE 1011,3
17.05.2019 19:00:00 - - - - - -
17.05.2019 18:00:00 - - - - - -
17.05.2019 17:00:00 15,1 10,3 9 5 SE 1010,8
17.05.2019 16:00:00 15,3 9,8 9 5 SSE 1011,3
17.05.2019 15:00:00 15,5 9,6 15 8 SSE 1011,2
17.05.2019 14:00:00 15,9 8,1 16 9 SSE 1011,4
17.05.2019 13:00:00 15,6 9,0 21 11 SSE 1011,5
17.05.2019 12:00:00 16,0 9,8 9 5 SSE 1011,6
17.05.2019 11:00:00 15,5 7,7 5 3 E 1011,8
17.05.2019 10:00:00 14,2 9,0 4 2 WNW 1012,2
17.05.2019 09:00:00 13,2 8,6 8 4 W 1012,3
17.05.2019 08:00:00 13,2 6,5 13 7 W 1011,5
17.05.2019 07:00:00 12,2 5,7 0 0 N 1011,0
17.05.2019 06:00:00 11,7 5,5 4 2 WNW 1010,6
17.05.2019 05:00:00 11,4 5,2 9 5 WNW 1010,5
17.05.2019 04:00:00 11,2 5,0 18 10 WNW 1010,7
17.05.2019 03:00:00 11,3 6,2 9 5 WNW 1010,8
17.05.2019 02:00:00 11,3 5,8 9 5 WNW 1010,9
17.05.2019 01:00:00 11,5 6,6 5 3 WNW 1011,3
17.05.2019 00:00:00 11,5 6,6 11 6 W 1011,2
16.05.2019 23:00:00 11,7 7,8 9 5 WNW 1011,3
16.05.2019 22:00:00 11,7 7,9 5 3 NW 1010,6
16.05.2019 21:00:00 11,3 7,9 5 3 NW 1010,2
16.05.2019 20:00:00 11,4 7,8 2 1 E 1009,7
16.05.2019 19:00:00 11,5 7,8 2 1 ESE 1009,2
16.05.2019 18:00:00 11,5 8,5 4 2 E 1009,1
16.05.2019 17:00:00 11,1 7,9 4 2 ENE 1008,5
16.05.2019 16:00:00 11,0 8,7 8 4 E 1009,0
16.05.2019 15:00:00 10,1 8,0 11 6 NE 1009,6
16.05.2019 14:00:00 10,6 8,8 0 0 N 1010,0
16.05.2019 13:00:00 10,8 8,5 5 3 NE 1009,8
16.05.2019 12:00:00 11,6 9,3 9 5 ENE 1009,8
16.05.2019 11:00:00 12,0 9,2 11 6 ESE 1009,6
16.05.2019 10:00:00 14,0 9,0 21 11 E 1008,7
16.05.2019 09:00:00 13,0 9,0 9 5 E 1009,1
16.05.2019 08:00:00 12,1 9,1 9 5 N 1009,1
16.05.2019 07:00:00 11,3 8,5 9 5 ENE 1008,9
16.05.2019 06:00:00 11,3 9,0 11 6 ENE 1008,5
16.05.2019 05:00:00 11,2 8,4 5 3 E 1008,9
16.05.2019 04:00:00 11,0 7,8 9 5 S 1008,5
16.05.2019 03:00:00 11,8 7,5 0 0 N 1009,1
16.05.2019 02:00:00 11,8 7,9 4 2 WNW 1010,1
16.05.2019 01:00:00 11,6 7,7 0 0 N 1010,7
16.05.2019 00:00:00 11,6 7,9 8 4 N 1011,2
15.05.2019 23:00:00 11,4 8,6 4 2 N 1011,5
15.05.2019 22:00:00 11,3 8,7 5 3 N 1011,6
15.05.2019 21:00:00 11,7 9,2 2 1 NNE 1011,8
15.05.2019 20:00:00 12,0 9,0 2 1 E 1011,5
15.05.2019 19:00:00 12,3 9,3 4 2 SSE 1011,5
15.05.2019 18:00:00 12,3 8,5 5 3 SSE 1011,7
15.05.2019 17:00:00 12,5 8,9 4 2 S 1011,8
15.05.2019 16:00:00 12,0 8,6 8 4 SSE 1011,9

tt = temperature
td = dewpoint
ff = wind speed
dd = wind direction
ppp = reduced air pressure

Next stations